createdAt,value
2023-10-05T00:01:08.314Z,101998.28
2023-10-05T00:04:16.198Z,101996.47
2023-10-05T00:07:24.560Z,101995.63
2023-10-05T00:10:27.895Z,101988.53
2023-10-05T00:13:33.585Z,101991.19
2023-10-05T00:16:38.652Z,101992.97
2023-10-05T00:19:41.832Z,101985.84
2023-10-05T00:22:45.016Z,101986.78
2023-10-05T00:25:48.793Z,101991.25
2023-10-05T00:29:05.519Z,101989.50
2023-10-05T00:32:14.269Z,101985.03
2023-10-05T00:35:25.784Z,101984.16
2023-10-05T00:38:30.289Z,101990.38
2023-10-05T00:41:33.066Z,101983.28
2023-10-05T00:44:38.181Z,101980.63
2023-10-05T00:47:43.940Z,101984.16
2023-10-05T00:50:47.798Z,101977.94
2023-10-05T00:53:51.952Z,101973.56
2023-10-05T00:56:55.381Z,101976.22
2023-10-05T01:00:20.599Z,101976.22
2023-10-05T01:03:35.394Z,101969.13
2023-10-05T01:06:43.341Z,101956.72
2023-10-05T01:10:09.038Z,101942.44
2023-10-05T01:13:29.660Z,101936.25
2023-10-05T01:16:34.463Z,101937.16
2023-10-05T01:19:40.203Z,101928.28
2023-10-05T01:22:43.117Z,101927.38
2023-10-05T01:25:47.517Z,101917.59
2023-10-05T01:28:50.907Z,101908.69
2023-10-05T01:31:54.442Z,101900.75
2023-10-05T01:34:59.669Z,101906.94
2023-10-05T01:38:04.360Z,101898.03
2023-10-05T01:41:09.915Z,101904.25
2023-10-05T01:44:15.188Z,101896.28
2023-10-05T01:47:19.552Z,101896.28
2023-10-05T01:50:24.189Z,101897.16
2023-10-05T01:53:27.743Z,101897.22
2023-10-05T01:56:32.012Z,101891.91
2023-10-05T01:59:35.612Z,101892.78
2023-10-05T02:02:38.795Z,101886.56
2023-10-05T02:05:42.766Z,101893.66
2023-10-05T02:08:45.537Z,101881.22
2023-10-05T02:11:53.228Z,101880.41
2023-10-05T02:14:58.914Z,101875.06
2023-10-05T02:18:08.469Z,101870.56
2023-10-05T02:21:18.623Z,101874.19
2023-10-05T02:24:23.614Z,101866.19
2023-10-05T02:27:30.105Z,101859.09
2023-10-05T02:30:33.196Z,101868.91
2023-10-05T02:33:40.133Z,101861.75
2023-10-05T02:36:44.231Z,101860.91
2023-10-05T02:39:47.598Z,101858.25
2023-10-05T02:42:52.473Z,101858.25
2023-10-05T02:46:04.415Z,101860.91
2023-10-05T02:49:08.014Z,101864.47
2023-10-05T02:52:14.292Z,101852.91
2023-10-05T02:55:17.536Z,101853.81
2023-10-05T02:58:23.714Z,101854.69
2023-10-05T03:01:28.004Z,101853.81
2023-10-05T03:04:45.964Z,101853.81
2023-10-05T03:07:50.857Z,101847.59
2023-10-05T03:10:54.388Z,101846.75
2023-10-05T03:13:59.885Z,101838.75
2023-10-05T03:17:06.505Z,101846.75
2023-10-05T03:20:10.631Z,101826.31
2023-10-05T03:23:15.586Z,101824.53
2023-10-05T03:26:19.384Z,101823.66
2023-10-05T03:29:23.812Z,101824.53
2023-10-05T03:32:30.160Z,101813.88
2023-10-05T03:35:34.500Z,101818.31
2023-10-05T03:38:40.760Z,101812.09
2023-10-05T03:41:44.138Z,101815.66
2023-10-05T03:45:00.499Z,101807.66
2023-10-05T03:48:04.471Z,101801.44
2023-10-05T03:51:16.350Z,101811.25
2023-10-05T03:54:20.611Z,101804.16
2023-10-05T03:57:23.454Z,101801.50
2023-10-05T04:00:36.243Z,101806.84
2023-10-05T04:03:39.657Z,101801.50
2023-10-05T04:06:43.091Z,101797.97
2023-10-05T04:09:45.896Z,101804.16
2023-10-05T04:12:50.568Z,101798.84
2023-10-05T04:15:54.793Z,101800.59
2023-10-05T04:19:00.190Z,101797.97
2023-10-05T04:22:03.341Z,101793.50
2023-10-05T04:25:07.150Z,101792.63
2023-10-05T04:28:10.030Z,101778.44
2023-10-05T04:31:17.947Z,101779.28
2023-10-05T04:34:21.250Z,101774.91
2023-10-05T04:37:27.138Z,101774.00
2023-10-05T04:40:35.146Z,101779.34
2023-10-05T04:43:39.320Z,101774.94
2023-10-05T04:46:48.744Z,101762.44
2023-10-05T04:49:51.808Z,101763.34
2023-10-05T04:52:55.759Z,101764.22
2023-10-05T04:56:11.380Z,101756.22
2023-10-05T04:59:26.073Z,101755.34
2023-10-05T05:02:59.724Z,101759.81
2023-10-05T05:06:12.355Z,101744.69
2023-10-05T05:09:15.574Z,101751.78
2023-10-05T05:12:19.107Z,101738.47
2023-10-05T05:15:22.377Z,101735.88
2023-10-05T05:18:26.656Z,101736.66
2023-10-05T05:21:30.230Z,101734.00
2023-10-05T05:24:33.505Z,101733.13
2023-10-05T05:27:36.321Z,101737.59
2023-10-05T05:30:40.472Z,101742.91
2023-10-05T05:33:45.675Z,101742.00
2023-10-05T05:36:48.524Z,101737.56
2023-10-05T05:39:51.266Z,101732.22
2023-10-05T05:42:55.451Z,101734.88
2023-10-05T05:45:59.777Z,101739.28
2023-10-05T05:49:09.288Z,101737.50
2023-10-05T05:52:13.230Z,101736.59
2023-10-05T05:55:21.745Z,101733.09
2023-10-05T05:58:24.827Z,101743.75
2023-10-05T06:01:27.807Z,101741.09
2023-10-05T06:04:33.751Z,101733.09
2023-10-05T06:07:40.123Z,101749.94
2023-10-05T06:10:44.470Z,101749.09
2023-10-05T06:13:47.743Z,101739.28
2023-10-05T06:16:50.660Z,101734.81
2023-10-05T06:19:54.813Z,101744.59
2023-10-05T06:22:57.641Z,101749.09
2023-10-05T06:26:00.732Z,101745.59
2023-10-05T06:29:04.014Z,101743.16
2023-10-05T06:32:09.722Z,101739.97
2023-10-05T06:35:14.251Z,101743.09
2023-10-05T06:38:18.103Z,101744.25
2023-10-05T06:41:23.905Z,101738.22
2023-10-05T06:44:26.980Z,101734.81
2023-10-05T06:47:38.128Z,101742.88
2023-10-05T06:50:42.648Z,101747.50
2023-10-05T06:53:45.711Z,101750.16
2023-10-05T06:56:50.992Z,101749.19
2023-10-05T06:59:56.520Z,101745.50
2023-10-05T07:03:02.838Z,101748.88
2023-10-05T07:06:07.413Z,101738.97
2023-10-05T07:09:12.746Z,101738.88
2023-10-05T07:12:15.583Z,101746.69
2023-10-05T07:15:20.423Z,101740.41
2023-10-05T07:18:25.907Z,101739.38
2023-10-05T07:21:30.454Z,101742.88
2023-10-05T07:24:33.219Z,101751.69
2023-10-05T07:27:36.152Z,101746.25
2023-10-05T07:30:38.984Z,101760.44
2023-10-05T07:33:42.546Z,101758.56
2023-10-05T07:36:46.857Z,101762.06
2023-10-05T07:39:52.172Z,101758.47
2023-10-05T07:42:54.997Z,101766.41
2023-10-05T07:45:57.822Z,101763.69
2023-10-05T07:49:00.691Z,101770.75
2023-10-05T07:52:09.026Z,101777.81
2023-10-05T07:55:12.720Z,101781.31
2023-10-05T07:58:15.634Z,101776.84
2023-10-05T08:01:19.768Z,101784.78
2023-10-05T08:04:23.653Z,101790.13
2023-10-05T08:07:27.963Z,101798.13
2023-10-05T08:10:33.030Z,101798.94
2023-10-05T08:13:36.193Z,101798.03
2023-10-05T08:16:39.224Z,101789.09
2023-10-05T08:19:42.090Z,101801.50
2023-10-05T08:22:47.984Z,101797.94
2023-10-05T08:25:51.090Z,101788.09
2023-10-05T08:28:53.940Z,101791.66
2023-10-05T08:31:58.083Z,101780.97
2023-10-05T08:35:08.095Z,101780.97
2023-10-05T08:38:17.123Z,101791.59
2023-10-05T08:41:32.595Z,101795.13
2023-10-05T08:44:39.698Z,101800.47
2023-10-05T08:47:43.458Z,101789.78
2023-10-05T08:50:47.873Z,101796.88
2023-10-05T08:53:56.227Z,101791.53
2023-10-05T08:57:01.048Z,101796.88
2023-10-05T09:00:10.242Z,101796.88
2023-10-05T09:03:30.089Z,101795.94
2023-10-05T09:06:33.165Z,101795.88
2023-10-05T09:09:40.270Z,101802.09
2023-10-05T09:12:45.914Z,101807.38
2023-10-05T09:15:58.655Z,101809.19
2023-10-05T09:19:02.117Z,101813.56
2023-10-05T09:22:13.902Z,101817.19
2023-10-05T09:25:27.282Z,101818.00
2023-10-05T09:28:35.926Z,101821.56
2023-10-05T09:31:42.944Z,101821.53
2023-10-05T09:34:50.787Z,101833.06
2023-10-05T09:37:53.789Z,101830.38
2023-10-05T09:41:03.492Z,101839.28
2023-10-05T09:44:09.034Z,101838.41
2023-10-05T09:47:14.082Z,101849.03
2023-10-05T09:50:18.604Z,101843.69
2023-10-05T09:53:21.556Z,101860.56
2023-10-05T09:56:41.361Z,101851.69
2023-10-05T09:59:52.719Z,101864.16
2023-10-05T10:02:58.935Z,101857.88
2023-10-05T10:06:09.758Z,101868.56
2023-10-05T10:09:13.154Z,101866.75
2023-10-05T10:12:27.857Z,101870.31
2023-10-05T10:15:34.438Z,101870.31
2023-10-05T10:18:39.337Z,101872.91
2023-10-05T10:21:47.527Z,101875.59
2023-10-05T10:24:53.827Z,101871.13
2023-10-05T10:28:18.146Z,101866.69
2023-10-05T10:31:27.247Z,101881.81
2023-10-05T10:34:53.656Z,101886.22
2023-10-05T10:37:56.778Z,101889.81
2023-10-05T10:41:10.594Z,101894.22
2023-10-05T10:44:25.669Z,101898.69
2023-10-05T10:47:37.244Z,101896.06
2023-10-05T10:50:40.276Z,101895.19
2023-10-05T10:53:46.625Z,101890.69
2023-10-05T10:56:49.593Z,101903.09
2023-10-05T11:00:14.642Z,101895.94
2023-10-05T11:03:16.801Z,101903.03
2023-10-05T11:06:19.773Z,101897.72
2023-10-05T11:09:31.227Z,101903.03
2023-10-05T11:12:43.777Z,101904.78
2023-10-05T11:15:59.341Z,101910.09
2023-10-05T11:19:12.255Z,101914.56
2023-10-05T11:22:25.640Z,101903.09
2023-10-05T11:25:34.779Z,101913.72
2023-10-05T11:28:37.916Z,101916.38
2023-10-05T11:32:17.718Z,101914.56
2023-10-05T11:35:19.208Z,101921.72
2023-10-05T11:38:27.505Z,101917.31
2023-10-05T11:41:31.389Z,101920.78
2023-10-05T11:44:34.574Z,101923.44
2023-10-05T11:47:39.859Z,101911.00
2023-10-05T11:50:55.956Z,101922.53
2023-10-05T11:53:59.711Z,101922.53
2023-10-05T11:57:06.045Z,101927.00
2023-10-05T12:00:12.623Z,101927.00
2023-10-05T12:03:17.935Z,101919.88
2023-10-05T12:06:24.797Z,101917.22
2023-10-05T12:09:33.254Z,101911.88
2023-10-05T12:12:36.033Z,101919.88
2023-10-05T12:15:39.588Z,101924.28
2023-10-05T12:18:44.095Z,101940.28
2023-10-05T12:21:46.879Z,101942.03
2023-10-05T12:24:52.043Z,101944.72
2023-10-05T12:27:55.447Z,101939.31
2023-10-05T12:30:58.241Z,101939.25
2023-10-05T12:34:07.962Z,101935.69
2023-10-05T12:37:19.308Z,101927.69
2023-10-05T12:40:27.632Z,101921.50
2023-10-05T12:43:30.720Z,101927.66
2023-10-05T12:46:34.545Z,101932.13
2023-10-05T12:49:38.913Z,101936.56
2023-10-05T12:52:42.137Z,101934.78
2023-10-05T12:55:45.088Z,101938.34
2023-10-05T12:58:47.964Z,101940.06
2023-10-05T13:01:51.025Z,101952.50
2023-10-05T13:05:03.187Z,101967.63
2023-10-05T13:08:17.448Z,101971.19
2023-10-05T13:11:20.521Z,101976.50
2023-10-05T13:14:23.314Z,101978.31
2023-10-05T13:17:26.248Z,101979.19
2023-10-05T13:20:30.437Z,101973.84
2023-10-05T13:23:34.229Z,101966.75
2023-10-05T13:26:37.157Z,101964.06
2023-10-05T13:29:44.536Z,101956.94
2023-10-05T13:32:48.225Z,101957.88
2023-10-05T13:35:53.397Z,101965.03
2023-10-05T13:38:56.609Z,101966.75
2023-10-05T13:42:06.847Z,101972.97
2023-10-05T13:45:12.198Z,101964.06
2023-10-05T13:48:17.601Z,101975.63
2023-10-05T13:51:23.951Z,101967.63
2023-10-05T13:54:26.828Z,101972.91
2023-10-05T13:57:30.052Z,101972.06
2023-10-05T14:00:33.300Z,101979.19
2023-10-05T14:03:37.670Z,101968.50
2023-10-05T14:06:43.104Z,101954.22
2023-10-05T14:09:46.148Z,101948.03
2023-10-05T14:12:52.448Z,101953.38
2023-10-05T14:15:55.334Z,101956.88
2023-10-05T14:18:59.226Z,101961.31
2023-10-05T14:22:05.097Z,101957.69
2023-10-05T14:25:18.294Z,101963.91
2023-10-05T14:28:24.914Z,101955.00
2023-10-05T14:31:30.328Z,101963.00
2023-10-05T14:34:34.619Z,101961.19
2023-10-05T14:37:43.460Z,101959.47
2023-10-05T14:40:49.968Z,101967.41
2023-10-05T14:43:53.439Z,101973.63
2023-10-05T14:46:56.781Z,101977.19
2023-10-05T14:49:59.742Z,101978.97
2023-10-05T14:53:05.923Z,101984.28
2023-10-05T14:56:12.614Z,101978.00
2023-10-05T14:59:15.482Z,101971.75
2023-10-05T15:02:19.067Z,101986.00
2023-10-05T15:05:21.959Z,101986.00
2023-10-05T15:08:26.173Z,101992.16
2023-10-05T15:11:29.027Z,101984.13
2023-10-05T15:14:31.882Z,101993.03
2023-10-05T15:17:34.701Z,101993.88
2023-10-05T15:20:39.288Z,101992.16
2023-10-05T15:23:43.530Z,101998.38
2023-10-05T15:26:46.413Z,101993.94
2023-10-05T15:29:49.514Z,101993.06
2023-10-05T15:32:52.957Z,102005.56
2023-10-05T15:35:58.270Z,102002.00
2023-10-05T15:39:04.371Z,102007.38
2023-10-05T15:42:07.282Z,102011.00
2023-10-05T15:45:11.871Z,102011.91
2023-10-05T15:48:14.737Z,102018.19
2023-10-05T15:51:17.555Z,102024.41
2023-10-05T15:54:22.089Z,102026.19
2023-10-05T15:57:26.201Z,102033.31
2023-10-05T16:00:32.572Z,102045.78
2023-10-05T16:03:35.358Z,102040.50
2023-10-05T16:06:38.225Z,102040.56
2023-10-05T16:09:42.376Z,102043.22
2023-10-05T16:12:45.744Z,102052.16
2023-10-05T16:15:48.586Z,102039.75
2023-10-05T16:18:51.405Z,102063.75
2023-10-05T16:21:54.380Z,102064.66
2023-10-05T16:24:58.512Z,102072.69
2023-10-05T16:28:03.388Z,102075.34
2023-10-05T16:31:07.183Z,102079.81
2023-10-05T16:34:10.620Z,102089.63
2023-10-05T16:37:13.452Z,102088.75
2023-10-05T16:40:20.979Z,102084.28
2023-10-05T16:43:24.935Z,102093.22
2023-10-05T16:46:28.887Z,102103.88
2023-10-05T16:49:32.101Z,102106.63
2023-10-05T16:52:36.440Z,102113.72
2023-10-05T16:55:40.638Z,102120.88
2023-10-05T16:58:43.431Z,102120.00
2023-10-05T17:01:46.293Z,102112.00
2023-10-05T17:04:49.239Z,102125.34
2023-10-05T17:07:55.584Z,102130.69
2023-10-05T17:10:59.979Z,102136.03
2023-10-05T17:14:02.805Z,102130.69
2023-10-05T17:17:05.980Z,102123.59
2023-10-05T17:20:09.609Z,102136.94
2023-10-05T17:23:12.436Z,102128.94
2023-10-05T17:26:16.640Z,102136.06
2023-10-05T17:29:19.460Z,102142.28
2023-10-05T17:32:22.239Z,102146.78
2023-10-05T17:35:25.116Z,102153.06
2023-10-05T17:38:30.195Z,102145.06
2023-10-05T17:41:35.196Z,102138.84
2023-10-05T17:44:38.085Z,102145.06
2023-10-05T17:47:40.982Z,102141.50
2023-10-05T17:50:52.300Z,102147.72
2023-10-05T17:53:55.092Z,102141.50
2023-10-05T17:57:01.137Z,102143.22
2023-10-05T18:00:06.845Z,102143.28
2023-10-05T18:03:19.988Z,102155.72
2023-10-05T18:06:22.900Z,102159.31
2023-10-05T18:09:25.684Z,102156.63
2023-10-05T18:12:29.812Z,102162.88
2023-10-05T18:15:32.570Z,102161.16
2023-10-05T18:18:36.067Z,102173.56
2023-10-05T18:21:40.416Z,102174.50
2023-10-05T18:24:43.328Z,102181.63
2023-10-05T18:27:47.495Z,102188.72
2023-10-05T18:30:50.366Z,102190.50
2023-10-05T18:33:53.180Z,102187.84
2023-10-05T18:36:56.356Z,102192.22
2023-10-05T18:40:00.972Z,102203.84
2023-10-05T18:43:06.136Z,102199.38
2023-10-05T18:46:09.227Z,102198.50
2023-10-05T18:49:12.050Z,102189.63
2023-10-05T18:52:15.115Z,102187.00
2023-10-05T18:55:18.061Z,102195.00
2023-10-05T18:58:22.260Z,102195.00
2023-10-05T19:01:26.138Z,102207.47
2023-10-05T19:04:29.171Z,102211.03
2023-10-05T19:07:32.104Z,102213.69
2023-10-05T19:10:34.939Z,102211.94
2023-10-05T19:13:39.203Z,102225.28
2023-10-05T19:16:42.240Z,102235.03
2023-10-05T19:19:45.788Z,102221.69
2023-10-05T19:22:48.786Z,102237.69
2023-10-05T19:25:51.644Z,102240.38
2023-10-05T19:28:55.803Z,102238.59
2023-10-05T19:31:58.704Z,102246.63
2023-10-05T19:35:02.672Z,102239.53
2023-10-05T19:38:05.785Z,102251.09
2023-10-05T19:41:09.736Z,102251.09
2023-10-05T19:44:14.285Z,102260.91
2023-10-05T19:47:19.735Z,102265.34
2023-10-05T19:50:23.742Z,102264.47
2023-10-05T19:53:26.580Z,102269.81
2023-10-05T19:56:37.380Z,102271.56
2023-10-05T19:59:43.359Z,102267.13
2023-10-05T20:02:46.310Z,102268.91
2023-10-05T20:05:51.310Z,102269.78
2023-10-05T20:08:54.138Z,102275.97
2023-10-05T20:11:57.033Z,102268.84
2023-10-05T20:15:01.362Z,102271.56
2023-10-05T20:18:04.591Z,102275.97
2023-10-05T20:21:13.074Z,102276.91
2023-10-05T20:24:15.999Z,102277.78
2023-10-05T20:27:18.825Z,102280.44
2023-10-05T20:30:23.013Z,102275.97
2023-10-05T20:33:25.810Z,102292.81
2023-10-05T20:36:28.595Z,102286.56
2023-10-05T20:39:31.391Z,102285.69
2023-10-05T20:42:34.172Z,102285.59
2023-10-05T20:45:39.843Z,102288.28
2023-10-05T20:48:42.966Z,102295.34
2023-10-05T20:51:46.112Z,102304.22
2023-10-05T20:54:49.049Z,102296.16
2023-10-05T20:57:52.161Z,102295.31
2023-10-05T21:00:56.753Z,102296.16
2023-10-05T21:03:59.676Z,102296.16
2023-10-05T21:07:02.511Z,102297.00
2023-10-05T21:10:06.044Z,102289.88
2023-10-05T21:13:08.840Z,102287.19
2023-10-05T21:16:12.994Z,102294.31
2023-10-05T21:19:15.781Z,102288.91
2023-10-05T21:22:18.601Z,102290.66
2023-10-05T21:25:21.397Z,102290.66
2023-10-05T21:28:24.392Z,102295.97
2023-10-05T21:31:28.672Z,102287.94
2023-10-05T21:34:31.618Z,102293.28
2023-10-05T21:37:34.517Z,102291.44
2023-10-05T21:40:37.405Z,102289.69
2023-10-05T21:43:40.247Z,102295.03
2023-10-05T21:46:44.500Z,102299.50
2023-10-05T21:49:47.512Z,102304.84
2023-10-05T21:52:50.771Z,102303.09
2023-10-05T21:55:54.732Z,102306.66
2023-10-05T21:58:57.901Z,102312.06
2023-10-05T22:02:02.261Z,102312.06
2023-10-05T22:05:06.199Z,102302.34
2023-10-05T22:08:11.146Z,102309.44
2023-10-05T22:11:14.289Z,102308.59
2023-10-05T22:14:17.892Z,102313.06
2023-10-05T22:17:22.117Z,102306.91
2023-10-05T22:20:25.079Z,102316.69
2023-10-05T22:23:28.094Z,102315.84
2023-10-05T22:26:32.268Z,102318.53
2023-10-05T22:29:36.078Z,102329.19
2023-10-05T22:32:40.227Z,102322.97
2023-10-05T22:35:43.264Z,102320.38
2023-10-05T22:38:46.094Z,102329.25
2023-10-05T22:41:50.480Z,102331.94
2023-10-05T22:44:54.253Z,102335.50
2023-10-05T22:47:58.575Z,102332.81
2023-10-05T22:51:01.402Z,102334.66
2023-10-05T22:54:04.310Z,102332.00
2023-10-05T22:57:07.068Z,102326.66
2023-10-05T23:00:12.262Z,102336.47
2023-10-05T23:03:16.507Z,102332.00
2023-10-05T23:06:19.835Z,102330.28
2023-10-05T23:09:22.596Z,102333.84
2023-10-05T23:12:25.414Z,102333.84
2023-10-05T23:15:28.269Z,102333.00
2023-10-05T23:18:32.394Z,102332.09
2023-10-05T23:21:35.164Z,102344.50
2023-10-05T23:24:38.240Z,102340.09
2023-10-05T23:27:43.797Z,102342.78
2023-10-05T23:30:47.229Z,102341.00
2023-10-05T23:33:51.523Z,102343.66
2023-10-05T23:36:55.679Z,102341.00
2023-10-05T23:39:58.562Z,102348.13
2023-10-05T23:43:01.376Z,102344.63
2023-10-05T23:46:04.391Z,102349.06
2023-10-05T23:49:10.753Z,102351.78
2023-10-05T23:52:15.893Z,102356.25
2023-10-05T23:55:18.930Z,102356.25
2023-10-05T23:58:23.708Z,102365.13
